createdAt,value
2023-11-15T00:03:04.781Z,90.90
2023-11-15T00:08:10.094Z,88.80
2023-11-15T00:13:15.605Z,87.90
2023-11-15T00:18:21.436Z,83.10
2023-11-15T00:23:26.679Z,79.40
2023-11-15T00:28:32.053Z,80.30
2023-11-15T00:33:37.753Z,80.00
2023-11-15T00:38:43.844Z,80.70
2023-11-15T00:43:51.289Z,80.50
2023-11-15T00:48:56.926Z,79.30
2023-11-15T00:54:02.609Z,78.70
2023-11-15T00:59:09.506Z,78.50
2023-11-15T01:04:15.200Z,77.70
2023-11-15T01:09:20.397Z,78.50
2023-11-15T01:14:26.618Z,79.40
2023-11-15T01:19:32.190Z,78.40
2023-11-15T01:24:38.245Z,77.60
2023-11-15T01:29:44.181Z,78.40
2023-11-15T01:34:50.227Z,77.50
2023-11-15T01:39:55.655Z,77.40
2023-11-15T01:45:01.093Z,77.20
2023-11-15T01:50:13.714Z,77.30
2023-11-15T01:55:22.807Z,78.20
2023-11-15T02:00:30.658Z,78.90
2023-11-15T02:05:37.056Z,80.00
2023-11-15T02:10:44.983Z,80.30
2023-11-15T02:15:48.064Z,81.50
2023-11-15T02:20:54.206Z,82.20
2023-11-15T02:25:59.849Z,82.80
2023-11-15T02:31:07.614Z,83.20
2023-11-15T02:36:11.376Z,83.40
2023-11-15T02:41:15.334Z,83.70
2023-11-15T02:46:25.896Z,84.60
2023-11-15T02:51:31.610Z,85.70
2023-11-15T02:56:37.172Z,87.00
2023-11-15T03:01:52.180Z,88.10
2023-11-15T03:06:55.654Z,89.40
2023-11-15T03:11:58.073Z,89.50
2023-11-15T03:17:09.994Z,89.70
2023-11-15T03:22:15.770Z,89.90
2023-11-15T03:27:18.987Z,89.50
2023-11-15T03:32:20.942Z,87.30
2023-11-15T03:37:23.006Z,85.10
2023-11-15T03:42:25.455Z,84.40
2023-11-15T03:47:27.556Z,84.40
2023-11-15T03:52:30.548Z,83.20
2023-11-15T03:57:35.552Z,83.00
2023-11-15T04:02:39.838Z,83.70
2023-11-15T04:07:44.413Z,84.20
2023-11-15T04:12:57.009Z,85.10
2023-11-15T04:18:02.339Z,86.30
2023-11-15T04:23:07.590Z,87.80
2023-11-15T04:28:12.627Z,88.90
2023-11-15T04:33:18.014Z,89.60
2023-11-15T04:38:24.702Z,90.50
2023-11-15T04:43:30.164Z,91.50
2023-11-15T04:48:33.625Z,92.00
2023-11-15T04:53:37.057Z,93.20
2023-11-15T04:58:41.111Z,92.50
2023-11-15T05:03:44.750Z,92.80
2023-11-15T05:08:49.623Z,92.90
2023-11-15T05:13:53.974Z,92.40
2023-11-15T05:19:01.347Z,92.00
2023-11-15T05:24:05.833Z,92.20
2023-11-15T05:29:13.339Z,92.30
2023-11-15T05:34:20.020Z,93.00
2023-11-15T05:39:26.058Z,93.60
2023-11-15T05:44:32.312Z,93.90
2023-11-15T05:49:41.318Z,94.40
2023-11-15T05:54:56.707Z,94.70
2023-11-15T06:00:12.431Z,94.70
2023-11-15T06:05:29.246Z,94.40
2023-11-15T06:10:46.024Z,94.40
2023-11-15T06:15:57.241Z,94.50
2023-11-15T06:21:07.163Z,95.00
2023-11-15T06:26:18.385Z,95.70
2023-11-15T06:31:31.589Z,94.30
2023-11-15T06:36:44.678Z,93.60
2023-11-15T06:41:50.974Z,93.60
2023-11-15T06:46:57.535Z,93.60
2023-11-15T06:52:04.963Z,94.00
2023-11-15T06:57:11.794Z,94.50
2023-11-15T07:02:22.374Z,95.40
2023-11-15T07:07:33.388Z,95.70
2023-11-15T07:12:46.381Z,95.60
2023-11-15T07:18:01.622Z,95.40
2023-11-15T07:23:13.667Z,95.40
2023-11-15T07:28:30.183Z,96.00
2023-11-15T07:33:41.137Z,96.30
2023-11-15T07:38:51.490Z,96.60
2023-11-15T07:44:01.454Z,96.80
2023-11-15T07:49:11.346Z,96.40
2023-11-15T07:54:28.875Z,95.90
2023-11-15T07:59:43.897Z,95.90
2023-11-15T08:04:58.258Z,96.60
2023-11-15T08:10:07.370Z,97.20
2023-11-15T08:15:20.873Z,97.20
2023-11-15T08:20:30.791Z,96.70
2023-11-15T08:25:42.954Z,96.90
2023-11-15T08:30:52.340Z,97.30
2023-11-15T08:36:04.462Z,96.90
2023-11-15T08:41:12.933Z,96.90
2023-11-15T08:46:20.886Z,96.40
2023-11-15T08:51:29.151Z,95.30
2023-11-15T08:56:39.969Z,93.60
2023-11-15T09:01:47.997Z,92.10
2023-11-15T09:06:57.021Z,91.60
2023-11-15T09:12:14.280Z,92.00
2023-11-15T09:17:29.218Z,93.20
2023-11-15T09:22:42.957Z,93.80
2023-11-15T09:27:50.960Z,91.90
2023-11-15T09:33:00.692Z,91.70
2023-11-15T09:38:14.982Z,90.20
2023-11-15T09:43:23.613Z,89.20
2023-11-15T09:48:41.121Z,89.00
2023-11-15T09:53:57.705Z,87.20
2023-11-15T09:59:13.954Z,86.20
2023-11-15T10:04:33.199Z,87.20
2023-11-15T10:09:48.590Z,86.10
2023-11-15T10:14:59.115Z,85.40
2023-11-15T10:20:30.933Z,85.70
2023-11-15T10:25:51.681Z,85.70
2023-11-15T10:31:19.036Z,83.90
2023-11-15T10:36:30.401Z,83.80
2023-11-15T10:41:38.948Z,83.40
2023-11-15T10:46:48.052Z,82.30
2023-11-15T10:51:58.155Z,81.00
2023-11-15T10:57:10.467Z,79.50
2023-11-15T11:02:17.455Z,78.80
2023-11-15T11:07:44.589Z,79.90
2023-11-15T11:12:51.809Z,78.10
2023-11-15T11:18:32.987Z,78.10
2023-11-15T11:23:43.046Z,77.50
2023-11-15T11:29:12.012Z,75.40
2023-11-15T11:34:23.304Z,73.50
2023-11-15T11:39:58.182Z,71.70
2023-11-15T11:45:14.326Z,71.40
2023-11-15T11:50:32.374Z,70.00
2023-11-15T11:55:45.495Z,69.10
2023-11-15T12:01:07.036Z,69.00
2023-11-15T12:06:23.553Z,68.90
2023-11-15T12:11:36.199Z,69.50
2023-11-15T12:16:55.919Z,68.50
2023-11-15T12:22:04.975Z,68.30
2023-11-15T12:27:20.425Z,68.60
2023-11-15T12:32:35.140Z,68.80
2023-11-15T12:37:43.296Z,66.80
2023-11-15T12:42:58.303Z,66.50
2023-11-15T12:48:12.972Z,66.90
2023-11-15T12:53:23.072Z,66.00
2023-11-15T12:58:36.892Z,64.40
2023-11-15T13:03:48.549Z,64.70
2023-11-15T13:08:57.882Z,65.60
2023-11-15T13:14:05.488Z,64.50
2023-11-15T13:19:13.881Z,65.20
2023-11-15T13:24:22.751Z,65.10
2023-11-15T13:29:31.181Z,64.50
2023-11-15T13:34:37.958Z,64.20
2023-11-15T13:39:46.622Z,64.60
2023-11-15T13:44:53.244Z,64.80
2023-11-15T13:50:00.895Z,66.50
2023-11-15T13:55:07.675Z,66.50
2023-11-15T14:00:17.719Z,66.70
2023-11-15T14:05:28.894Z,67.40
2023-11-15T14:10:45.068Z,67.50
2023-11-15T14:15:53.017Z,67.50
2023-11-15T14:21:02.213Z,67.80
2023-11-15T14:26:17.696Z,67.50
2023-11-15T14:31:29.056Z,69.20
2023-11-15T14:36:47.691Z,68.20
2023-11-15T14:41:59.524Z,67.50
2023-11-15T14:47:15.438Z,67.70
2023-11-15T14:52:27.125Z,67.40
2023-11-15T14:57:48.921Z,68.20
2023-11-15T15:03:09.362Z,67.90
2023-11-15T15:08:26.369Z,68.00
2023-11-15T15:13:37.852Z,69.70
2023-11-15T15:18:45.154Z,68.30
2023-11-15T15:23:53.386Z,70.20
2023-11-15T15:29:05.757Z,70.70
2023-11-15T15:34:22.834Z,72.50
2023-11-15T15:39:35.752Z,72.20
2023-11-15T15:44:44.388Z,70.30
2023-11-15T15:49:51.120Z,71.40
2023-11-15T15:55:02.839Z,70.70
2023-11-15T16:00:16.138Z,72.20
2023-11-15T16:05:29.813Z,72.30
2023-11-15T16:10:39.683Z,70.80
2023-11-15T16:15:53.086Z,71.60
2023-11-15T16:20:59.573Z,72.60
2023-11-15T16:26:15.133Z,70.50
2023-11-15T16:31:26.708Z,72.60
2023-11-15T16:36:58.310Z,70.30
2023-11-15T16:42:11.240Z,70.70
2023-11-15T16:47:26.534Z,69.90
2023-11-15T16:52:41.602Z,71.10
2023-11-15T16:57:53.342Z,72.60
2023-11-15T17:03:06.124Z,74.60
2023-11-15T17:08:15.446Z,76.60
2023-11-15T17:13:33.526Z,78.50
2023-11-15T17:18:49.067Z,80.40
2023-11-15T17:24:04.301Z,80.80
2023-11-15T17:29:14.656Z,81.50
2023-11-15T17:34:22.502Z,82.30
2023-11-15T17:39:31.995Z,83.30
2023-11-15T17:44:45.498Z,83.90
2023-11-15T17:49:53.577Z,84.40
2023-11-15T17:55:05.785Z,84.00
2023-11-15T18:00:17.803Z,84.70
2023-11-15T18:10:42.263Z,84.50
2023-11-15T18:15:54.487Z,85.70
2023-11-15T18:21:02.984Z,86.70
2023-11-15T18:26:14.028Z,86.00
2023-11-15T18:31:22.648Z,86.20
2023-11-15T18:36:32.185Z,86.50
2023-11-15T18:41:40.790Z,86.70
2023-11-15T18:46:54.169Z,87.30
2023-11-15T18:52:01.485Z,87.80
2023-11-15T18:57:11.010Z,88.30
2023-11-15T19:02:23.975Z,88.40
2023-11-15T19:07:33.577Z,88.60
2023-11-15T19:12:43.929Z,89.10
2023-11-15T19:17:55.653Z,89.20
2023-11-15T19:23:06.517Z,90.20
2023-11-15T19:28:15.853Z,90.40
2023-11-15T19:33:30.831Z,91.00
2023-11-15T19:38:43.357Z,91.20
2023-11-15T19:43:54.705Z,90.80
2023-11-15T19:49:04.185Z,90.70
2023-11-15T19:54:12.759Z,90.30
2023-11-15T19:59:30.188Z,90.40
2023-11-15T20:04:37.610Z,90.60
2023-11-15T20:09:50.352Z,91.30
2023-11-15T20:15:00.968Z,91.50
2023-11-15T20:20:12.864Z,91.50
2023-11-15T20:25:23.687Z,92.00
2023-11-15T20:30:32.779Z,92.20
2023-11-15T20:35:43.426Z,92.20
2023-11-15T20:40:55.842Z,92.40
2023-11-15T20:46:16.496Z,92.40
2023-11-15T20:51:30.901Z,92.30
2023-11-15T20:56:51.470Z,92.50
2023-11-15T21:01:58.359Z,92.60
2023-11-15T21:07:07.746Z,92.10
2023-11-15T21:12:14.099Z,91.80
2023-11-15T21:17:23.520Z,91.40
2023-11-15T21:22:35.264Z,90.60
2023-11-15T21:27:43.523Z,91.00
2023-11-15T21:32:51.327Z,91.40
2023-11-15T21:38:00.782Z,91.80
2023-11-15T21:43:04.001Z,92.30
2023-11-15T21:48:11.282Z,92.10
2023-11-15T21:53:17.313Z,91.80
2023-11-15T21:58:22.989Z,92.10
2023-11-15T22:03:29.377Z,92.50
2023-11-15T22:08:37.257Z,93.00
2023-11-15T22:13:43.348Z,93.50
2023-11-15T22:18:52.477Z,93.50
2023-11-15T22:23:58.240Z,93.90
2023-11-15T22:29:07.257Z,94.10
2023-11-15T22:34:09.836Z,94.60
2023-11-15T22:39:13.145Z,95.20
2023-11-15T22:44:15.288Z,95.20
2023-11-15T22:49:17.959Z,95.20
2023-11-15T22:54:28.948Z,95.30
2023-11-15T22:59:31.223Z,95.10
2023-11-15T23:04:33.879Z,94.70
2023-11-15T23:09:36.322Z,94.80
2023-11-15T23:14:38.501Z,94.90
2023-11-15T23:19:40.829Z,95.40
2023-11-15T23:24:44.271Z,95.90
2023-11-15T23:29:46.457Z,96.20
2023-11-15T23:34:53.488Z,96.20
2023-11-15T23:39:56.177Z,96.40
2023-11-15T23:44:58.781Z,96.60
2023-11-15T23:50:01.440Z,96.80
2023-11-15T23:55:05.545Z,96.70
